MLA2291 LZPP-LZZI
Flight info
| Callsign | MLA2291 |
|---|---|
| Flight time | 0h 30m |
| Altitude | 7000 |
| Route | DCT SAGAN DCT |
| Aircraft | C208/L-V/N |
Departure
| Time | 2026-04-16 01:52 |
|---|---|
| Airport | Piešťany Airport (LZPP) |
Arrival
| Time | 2026-04-16 02:22 |
|---|---|
| Airport | Žilina-Dolný Hričov Airport (LZZI) |
| Time | Latitude | Longitude | Altitude | Speed | Heading |
|---|---|---|---|---|---|
| 2026-04-16 01:29 | 48.61193 | 17.83043 | 533 ft | 0 kts | 182° |
| 2026-04-16 01:48 | 48.61174 | 17.83006 | 533 ft | 7 kts | 268° |
| 2026-04-16 01:48 | 48.61200 | 17.82938 | 533 ft | 10 kts | 344° |
| 2026-04-16 01:48 | 48.61275 | 17.82939 | 533 ft | 12 kts | 2° |
| 2026-04-16 01:48 | 48.61365 | 17.82947 | 533 ft | 14 kts | 4° |
| 2026-04-16 01:49 | 48.61466 | 17.82956 | 533 ft | 15 kts | 2° |
| 2026-04-16 01:49 | 48.61561 | 17.82955 | 533 ft | 12 kts | 332° |
| 2026-04-16 01:49 | 48.61595 | 17.82835 | 533 ft | 14 kts | 283° |
| 2026-04-16 01:49 | 48.61598 | 17.82812 | 533 ft | 0 kts | 283° |
| 2026-04-16 01:50 | 48.61602 | 17.82782 | 533 ft | 13 kts | 281° |
| 2026-04-16 01:50 | 48.61626 | 17.82622 | 532 ft | 15 kts | 282° |
| 2026-04-16 01:50 | 48.61687 | 17.82555 | 532 ft | 21 kts | 9° |
| 2026-04-16 01:51 | 48.62128 | 17.82712 | 536 ft | 103 kts | 14° |
| 2026-04-16 01:51 | 48.62805 | 17.82931 | 700 ft | 121 kts | 10° |
| 2026-04-16 01:51 | 48.63679 | 17.83226 | 846 ft | 138 kts | 12° |
| 2026-04-16 01:51 | 48.64630 | 17.83579 | 1034 ft | 145 kts | 13° |
| 2026-04-16 01:52 | 48.65618 | 17.83950 | 1235 ft | 147 kts | 13° |
| 2026-04-16 01:52 | 48.66618 | 17.84319 | 1437 ft | 148 kts | 13° |
| 2026-04-16 01:52 | 48.67622 | 17.84685 | 1636 ft | 149 kts | 13° |
| 2026-04-16 01:52 | 48.68633 | 17.85054 | 1848 ft | 149 kts | 13° |
| 2026-04-16 01:53 | 48.69645 | 17.85417 | 2070 ft | 150 kts | 11° |
| 2026-04-16 01:53 | 48.70669 | 17.85282 | 2310 ft | 149 kts | 336° |
| 2026-04-16 01:53 | 48.71506 | 17.84403 | 2547 ft | 146 kts | 308° |
| 2026-04-16 01:53 | 48.71948 | 17.83051 | 2787 ft | 143 kts | 282° |
| 2026-04-16 01:54 | 48.72172 | 17.81582 | 3010 ft | 143 kts | 283° |
| 2026-04-16 01:54 | 48.72414 | 17.80115 | 3233 ft | 144 kts | 283° |
| 2026-04-16 01:54 | 48.72649 | 17.78643 | 3457 ft | 143 kts | 283° |
| 2026-04-16 01:54 | 48.72884 | 17.77173 | 3676 ft | 144 kts | 283° |
| 2026-04-16 01:55 | 48.73120 | 17.75695 | 3900 ft | 144 kts | 283° |
| 2026-04-16 01:55 | 48.73356 | 17.74221 | 4122 ft | 144 kts | 282° |
| 2026-04-16 01:55 | 48.73592 | 17.72746 | 4339 ft | 144 kts | 283° |
| 2026-04-16 01:55 | 48.73894 | 17.71308 | 4547 ft | 144 kts | 298° |
| 2026-04-16 01:56 | 48.74490 | 17.70080 | 4772 ft | 145 kts | 305° |
| 2026-04-16 01:56 | 48.75066 | 17.68844 | 4992 ft | 143 kts | 303° |
| 2026-04-16 01:56 | 48.75638 | 17.67611 | 5213 ft | 142 kts | 303° |
| 2026-04-16 01:56 | 48.76212 | 17.66379 | 5435 ft | 143 kts | 303° |
| 2026-04-16 01:57 | 48.76782 | 17.65164 | 5653 ft | 143 kts | 303° |
| 2026-04-16 01:57 | 48.77359 | 17.63931 | 5874 ft | 143 kts | 303° |
| 2026-04-16 01:57 | 48.77935 | 17.62696 | 6097 ft | 144 kts | 303° |
| 2026-04-16 01:57 | 48.78509 | 17.61461 | 6318 ft | 143 kts | 303° |
| 2026-04-16 01:58 | 48.79087 | 17.60227 | 6540 ft | 143 kts | 303° |
| 2026-04-16 01:58 | 48.79662 | 17.59000 | 6762 ft | 143 kts | 303° |
| 2026-04-16 01:58 | 48.80237 | 17.57767 | 6979 ft | 143 kts | 303° |
| 2026-04-16 01:58 | 48.80986 | 17.56692 | 6999 ft | 156 kts | 329° |
| 2026-04-16 01:59 | 48.82063 | 17.56292 | 6999 ft | 165 kts | 358° |
| 2026-04-16 01:59 | 48.83169 | 17.56784 | 7001 ft | 170 kts | 29° |
| 2026-04-16 01:59 | 48.83972 | 17.58069 | 7002 ft | 174 kts | 56° |
| 2026-04-16 01:59 | 48.84606 | 17.59669 | 7012 ft | 175 kts | 57° |
| 2026-04-16 02:00 | 48.85247 | 17.61244 | 7014 ft | 175 kts | 56° |
| 2026-04-16 02:00 | 48.85880 | 17.62797 | 7019 ft | 175 kts | 56° |
| 2026-04-16 02:00 | 48.86526 | 17.64372 | 7017 ft | 176 kts | 56° |
| 2026-04-16 02:00 | 48.87174 | 17.65951 | 7015 ft | 176 kts | 56° |
| 2026-04-16 02:01 | 48.87820 | 17.67532 | 7012 ft | 176 kts | 56° |
| 2026-04-16 02:01 | 48.88466 | 17.69105 | 7010 ft | 175 kts | 56° |
| 2026-04-16 02:01 | 48.89111 | 17.70676 | 7008 ft | 175 kts | 56° |
| 2026-04-16 02:01 | 48.89537 | 17.71715 | 7009 ft | 175 kts | 56° |
| 2026-04-16 02:02 | 48.90179 | 17.73291 | 7007 ft | 175 kts | 56° |
| 2026-04-16 02:02 | 48.90823 | 17.74869 | 7007 ft | 175 kts | 56° |
| 2026-04-16 02:02 | 48.91466 | 17.76450 | 7008 ft | 177 kts | 56° |
| 2026-04-16 02:02 | 48.92114 | 17.78040 | 7009 ft | 177 kts | 56° |
| 2026-04-16 02:03 | 48.92762 | 17.79623 | 7001 ft | 176 kts | 56° |
| 2026-04-16 02:03 | 48.93408 | 17.81203 | 6996 ft | 176 kts | 56° |
| 2026-04-16 02:03 | 48.94050 | 17.82782 | 7002 ft | 175 kts | 56° |
| 2026-04-16 02:04 | 48.95336 | 17.85939 | 7004 ft | 175 kts | 56° |
| 2026-04-16 02:04 | 48.95978 | 17.87521 | 7003 ft | 176 kts | 56° |
| 2026-04-16 02:04 | 48.96621 | 17.89103 | 6996 ft | 176 kts | 56° |
| 2026-04-16 02:04 | 48.97256 | 17.90665 | 7008 ft | 176 kts | 56° |
| 2026-04-16 02:05 | 48.97912 | 17.92237 | 7007 ft | 176 kts | 56° |
| 2026-04-16 02:05 | 48.98556 | 17.93818 | 7002 ft | 175 kts | 56° |
| 2026-04-16 02:05 | 48.99197 | 17.95400 | 7004 ft | 175 kts | 56° |
| 2026-04-16 02:05 | 48.99839 | 17.96981 | 7002 ft | 175 kts | 57° |
| 2026-04-16 02:06 | 49.00475 | 17.98556 | 7007 ft | 174 kts | 56° |
| 2026-04-16 02:06 | 49.01111 | 18.00129 | 7004 ft | 173 kts | 56° |
| 2026-04-16 02:06 | 49.01741 | 18.01691 | 7004 ft | 172 kts | 56° |
| 2026-04-16 02:06 | 49.02370 | 18.03243 | 7005 ft | 172 kts | 56° |
| 2026-04-16 02:07 | 49.02989 | 18.04775 | 7004 ft | 171 kts | 56° |
| 2026-04-16 02:07 | 49.03617 | 18.06328 | 7000 ft | 172 kts | 56° |
| 2026-04-16 02:07 | 49.04241 | 18.07883 | 7002 ft | 173 kts | 56° |
| 2026-04-16 02:07 | 49.04871 | 18.09443 | 6996 ft | 171 kts | 56° |
| 2026-04-16 02:08 | 49.05481 | 18.10957 | 7003 ft | 166 kts | 56° |
| 2026-04-16 02:08 | 49.06085 | 18.12443 | 6998 ft | 164 kts | 56° |
| 2026-04-16 02:08 | 49.06674 | 18.13907 | 7002 ft | 161 kts | 56° |
| 2026-04-16 02:08 | 49.07257 | 18.15362 | 6995 ft | 160 kts | 56° |
| 2026-04-16 02:09 | 49.07816 | 18.16756 | 6999 ft | 160 kts | 56° |
| 2026-04-16 02:09 | 49.08393 | 18.18193 | 6999 ft | 158 kts | 56° |
| 2026-04-16 02:09 | 49.08981 | 18.19660 | 6834 ft | 167 kts | 56° |
| 2026-04-16 02:09 | 49.09594 | 18.21209 | 6609 ft | 173 kts | 57° |
| 2026-04-16 02:10 | 49.10213 | 18.22771 | 6383 ft | 176 kts | 57° |
| 2026-04-16 02:10 | 49.10850 | 18.24371 | 6151 ft | 177 kts | 57° |
| 2026-04-16 02:10 | 49.11494 | 18.25982 | 5917 ft | 178 kts | 57° |
| 2026-04-16 02:10 | 49.12137 | 18.27597 | 5669 ft | 178 kts | 57° |
| 2026-04-16 02:11 | 49.12783 | 18.29215 | 5423 ft | 179 kts | 57° |
| 2026-04-16 02:11 | 49.13427 | 18.30831 | 5186 ft | 178 kts | 57° |
| 2026-04-16 02:11 | 49.14070 | 18.32449 | 4946 ft | 177 kts | 57° |
| 2026-04-16 02:11 | 49.14700 | 18.34031 | 4713 ft | 172 kts | 57° |
| 2026-04-16 02:12 | 49.15329 | 18.35579 | 4509 ft | 169 kts | 55° |
| 2026-04-16 02:12 | 49.16178 | 18.36654 | 4502 ft | 155 kts | 14° |
| 2026-04-16 02:12 | 49.17213 | 18.36643 | 4506 ft | 148 kts | 339° |
| 2026-04-16 02:12 | 49.18010 | 18.35741 | 4511 ft | 143 kts | 304° |
| 2026-04-16 02:13 | 49.18312 | 18.34324 | 4508 ft | 142 kts | 270° |
| 2026-04-16 02:13 | 49.18044 | 18.32886 | 4508 ft | 142 kts | 243° |
| 2026-04-16 02:13 | 49.17613 | 18.31529 | 4506 ft | 142 kts | 245° |
| 2026-04-16 02:13 | 49.17200 | 18.30180 | 4505 ft | 142 kts | 245° |
| 2026-04-16 02:14 | 49.16774 | 18.28806 | 4505 ft | 142 kts | 245° |
| 2026-04-16 02:14 | 49.16356 | 18.27457 | 4502 ft | 142 kts | 245° |
| 2026-04-16 02:14 | 49.15858 | 18.26150 | 4509 ft | 144 kts | 225° |
| 2026-04-16 02:14 | 49.14960 | 18.25500 | 4509 ft | 147 kts | 188° |
| 2026-04-16 02:15 | 49.13971 | 18.25774 | 4513 ft | 147 kts | 150° |
| 2026-04-16 02:15 | 49.13281 | 18.26901 | 4511 ft | 148 kts | 113° |
| 2026-04-16 02:15 | 49.13169 | 18.28428 | 4511 ft | 145 kts | 76° |
| 2026-04-16 02:15 | 49.13565 | 18.29831 | 4507 ft | 143 kts | 61° |
| 2026-04-16 02:16 | 49.13988 | 18.31202 | 4506 ft | 143 kts | 62° |
| 2026-04-16 02:16 | 49.14409 | 18.32567 | 4502 ft | 141 kts | 62° |
| 2026-04-16 02:16 | 49.14821 | 18.33902 | 4522 ft | 133 kts | 62° |
| 2026-04-16 02:16 | 49.15198 | 18.35134 | 4509 ft | 126 kts | 61° |
| 2026-04-16 02:17 | 49.15568 | 18.36321 | 4509 ft | 123 kts | 61° |
| 2026-04-16 02:17 | 49.15930 | 18.37477 | 4506 ft | 122 kts | 61° |
| 2026-04-16 02:17 | 49.16295 | 18.38640 | 4501 ft | 121 kts | 61° |
| 2026-04-16 02:17 | 49.16664 | 18.39812 | 4416 ft | 125 kts | 61° |
| 2026-04-16 02:18 | 49.17052 | 18.41052 | 4231 ft | 132 kts | 62° |
| 2026-04-16 02:18 | 49.17448 | 18.42331 | 4024 ft | 133 kts | 62° |
| 2026-04-16 02:18 | 49.17844 | 18.43601 | 3817 ft | 131 kts | 61° |
| 2026-04-16 02:18 | 49.18230 | 18.44838 | 3615 ft | 127 kts | 62° |
| 2026-04-16 02:19 | 49.18601 | 18.46033 | 3418 ft | 121 kts | 62° |
| 2026-04-16 02:19 | 49.18959 | 18.47180 | 3230 ft | 118 kts | 61° |
| 2026-04-16 02:19 | 49.19307 | 18.48301 | 3054 ft | 117 kts | 61° |
| 2026-04-16 02:19 | 49.19652 | 18.49401 | 2875 ft | 116 kts | 62° |
| 2026-04-16 02:20 | 49.19998 | 18.50517 | 2699 ft | 116 kts | 63° |
| 2026-04-16 02:20 | 49.20348 | 18.51637 | 2519 ft | 117 kts | 64° |
| 2026-04-16 02:20 | 49.20696 | 18.52758 | 2339 ft | 117 kts | 64° |
| 2026-04-16 02:20 | 49.21044 | 18.53875 | 2157 ft | 116 kts | 64° |
| 2026-04-16 02:21 | 49.21387 | 18.54986 | 1976 ft | 114 kts | 64° |
| 2026-04-16 02:21 | 49.21727 | 18.56077 | 1796 ft | 113 kts | 63° |
| 2026-04-16 02:21 | 49.22062 | 18.57160 | 1622 ft | 112 kts | 63° |
| 2026-04-16 02:21 | 49.22393 | 18.58225 | 1448 ft | 109 kts | 63° |
| 2026-04-16 02:22 | 49.22712 | 18.59258 | 1279 ft | 105 kts | 63° |
| 2026-04-16 02:22 | 49.22999 | 18.60242 | 1093 ft | 97 kts | 65° |
| 2026-04-16 02:22 | 49.23269 | 18.61103 | 1021 ft | 79 kts | 63° |
| 2026-04-16 02:22 | 49.23337 | 18.61321 | 1025 ft | 0 kts | 63° |
| 2026-04-16 02:23 | 49.23346 | 18.61349 | 1024 ft | 5 kts | 66° |
| 2026-04-16 02:23 | 49.23353 | 18.61427 | 1023 ft | 10 kts | 120° |
| 2026-04-16 02:23 | 49.23291 | 18.61485 | 1022 ft | 5 kts | 155° |
| 2026-04-16 02:23 | 49.23290 | 18.61485 | 1022 ft | 0 kts | 155° |
| 2026-04-16 02:24 | 49.23277 | 18.61494 | 1022 ft | 7 kts | 155° |
| 2026-04-16 02:24 | 49.23262 | 18.61565 | 1022 ft | 7 kts | 64° |
| 2026-04-16 02:25 | 49.23285 | 18.61640 | 1022 ft | 7 kts | 92° |
| 2026-04-16 02:25 | 49.23278 | 18.61661 | 1022 ft | 0 kts | 160° |
| 2026-04-16 02:25 | 49.23271 | 18.61661 | 1022 ft | 0 kts | 200° |
| 2026-04-16 02:25 | 49.23270 | 18.61660 | 1022 ft | 0 kts | 221° |
| 2026-04-16 02:26 | 49.23270 | 18.61658 | 1022 ft | 0 kts | 248° |
| 2026-04-16 02:26 | 49.23269 | 18.61656 | 1022 ft | 0 kts | 264° |
| 2026-04-16 02:26 | 49.23270 | 18.61645 | 1022 ft | 0 kts | 279° |
| 2026-04-16 02:26 | 49.23271 | 18.61640 | 1022 ft | 0 kts | 279° |
| 2026-04-16 02:27 | 49.23271 | 18.61639 | 1022 ft | 0 kts | 279° |